Time;durP1;ratioP1;P1;durP2;ratioP2;P2;SDS_P1;SDS_P2;PMS_P1;PMS_P2;Temp;Humidity;BMP_temperature;BMP_pressure;BME280_temperature;BME280_humidity;BME280_pressure;Samples;Min_cycle;Max_cycle;Signal;HPM_P1;HPM_P2
2022/06/11 00:02:06;;;;;;;3.42;1.30;;;18.70;99.90;;;;;;5033087;28;20564;-82
2022/06/11 00:04:39;;;;;;;3.42;1.58;;;18.60;99.90;;;;;;5033616;28;20581;-82
2022/06/11 00:07:12;;;;;;;3.97;1.58;;;18.60;99.90;;;;;;5032365;28;20179;-84
2022/06/11 00:09:38;;;;;;;3.42;1.38;;;18.60;99.90;;;;;;5033387;28;20585;-83
2022/06/11 00:12:04;;;;;;;6.20;1.92;;;18.60;99.90;;;;;;5033471;28;20206;-83
2022/06/11 00:14:33;;;;;;;3.33;1.40;;;18.60;99.90;;;;;;5033061;28;20230;-82
2022/06/11 00:17:01;;;;;;;6.80;1.83;;;18.60;99.90;;;;;;5033791;28;20174;-83
2022/06/11 00:19:28;;;;;;;7.13;1.90;;;18.60;99.90;;;;;;5033410;28;20253;-83
2022/06/11 00:21:55;;;;;;;5.63;1.90;;;18.60;99.90;;;;;;5028112;28;20202;-83
2022/06/11 00:24:23;;;;;;;4.70;2.05;;;18.60;99.90;;;;;;5028290;28;20258;-81
2022/06/11 00:26:52;;;;;;;4.78;1.52;;;18.60;99.90;;;;;;5033334;28;20307;-83
2022/06/11 00:29:20;;;;;;;4.05;1.58;;;18.50;99.90;;;;;;5037681;28;20194;-83
2022/06/11 00:31:47;;;;;;;6.35;1.52;;;18.60;99.90;;;;;;5038960;28;20272;-85
2022/06/11 00:36:49;;;;;;;5.72;1.90;;;18.50;99.90;;;;;;5033915;23;20645;-83
2022/06/11 00:39:18;;;;;;;4.40;1.55;;;18.50;99.90;;;;;;5016441;28;20175;-84
2022/06/11 00:41:46;;;;;;;5.10;1.52;;;18.50;99.90;;;;;;5015937;28;20593;-84
2022/06/11 00:44:12;;;;;;;5.50;1.58;;;18.50;99.90;;;;;;5024118;28;20181;-84
2022/06/11 00:47:05;;;;;;;5.22;1.73;;;18.50;99.90;;;;;;5046266;28;20189;-85
2022/06/11 00:49:41;;;;;;;3.22;1.65;;;18.50;99.90;;;;;;5036272;28;20179;-84
2022/06/11 00:52:18;;;;;;;5.30;1.58;;;18.40;99.90;;;;;;5052865;28;20182;-84
2022/06/11 00:54:51;;;;;;;2.85;1.55;;;18.40;99.90;;;;;;5035630;28;20274;-84
2022/06/11 00:57:17;;;;;;;4.78;1.70;;;18.40;99.90;;;;;;5037409;28;20191;-84
2022/06/11 00:59:50;;;;;;;3.00;1.60;;;18.40;99.90;;;;;;5035842;28;20209;-84
2022/06/11 01:02:15;;;;;;;5.57;1.90;;;18.40;99.90;;;;;;5035626;28;20186;-84
2022/06/11 01:05:00;;;;;;;5.38;1.92;;;18.40;99.90;;;;;;5037106;28;20500;-84
2022/06/11 01:08:06;;;;;;;3.35;1.65;;;18.40;99.90;;;;;;5035726;28;20171;-84
2022/06/11 01:10:53;;;;;;;5.68;1.95;;;18.40;99.90;;;;;;5013166;28;20277;-83
2022/06/11 01:13:33;;;;;;;4.72;1.80;;;18.40;99.90;;;;;;5037103;28;20183;-84
2022/06/11 01:16:13;;;;;;;4.00;1.73;;;18.40;99.90;;;;;;5037012;28;20502;-84
2022/06/11 01:19:01;;;;;;;4.95;1.98;;;18.30;99.90;;;;;;5035412;28;20212;-84
2022/06/11 01:21:35;;;;;;;3.85;1.70;;;18.30;99.90;;;;;;5052392;28;20213;-84
2022/06/11 01:24:19;;;;;;;4.53;1.63;;;18.30;99.90;;;;;;5036574;28;20640;-84
2022/06/11 01:27:18;;;;;;;4.82;2.05;;;18.30;99.90;;;;;;5036796;28;20189;-84
2022/06/11 01:30:02;;;;;;;6.28;2.08;;;18.30;99.90;;;;;;5035199;28;20193;-83
2022/06/11 01:32:40;;;;;;;3.53;1.60;;;18.30;99.90;;;;;;5040530;28;20625;-84
2022/06/11 01:35:26;;;;;;;3.55;1.70;;;18.20;99.90;;;;;;5054801;28;20623;-84
2022/06/11 01:38:03;;;;;;;6.95;1.70;;;18.20;99.90;;;;;;5055386;28;20618;-84
2022/06/11 01:40:50;;;;;;;5.32;1.88;;;18.20;99.90;;;;;;5054335;28;20213;-83
2022/06/11 01:43:22;;;;;;;2.65;1.73;;;18.20;99.90;;;;;;5032167;28;20182;-83
2022/06/11 01:45:48;;;;;;;5.20;2.10;;;18.20;99.90;;;;;;5034622;28;20189;-83
2022/06/11 01:48:20;;;;;;;4.97;1.67;;;18.20;99.90;;;;;;5035962;28;20210;-84
2022/06/11 01:51:09;;;;;;;3.83;1.70;;;18.20;99.90;;;;;;5034519;28;20181;-84
2022/06/11 01:53:50;;;;;;;2.95;1.48;;;18.20;99.90;;;;;;5052852;28;20635;-84
2022/06/11 01:56:43;;;;;;;5.32;1.70;;;18.10;99.90;;;;;;5053796;28;20190;-84
2022/06/11 01:59:21;;;;;;;4.75;2.05;;;18.20;99.90;;;;;;5054954;28;20177;-85
2022/06/11 02:01:53;;;;;;;4.13;1.60;;;18.10;99.90;;;;;;5053980;28;20209;-84
2022/06/11 02:04:41;;;;;;;3.08;1.58;;;18.10;99.90;;;;;;5050099;28;20280;-84
2022/06/11 02:07:32;;;;;;;7.35;1.90;;;18.00;99.90;;;;;;5053775;28;20186;-84
2022/06/11 02:10:20;;;;;;;6.70;1.83;;;18.10;99.90;;;;;;5053431;28;20185;-83
2022/06/11 02:12:58;;;;;;;4.32;1.42;;;18.10;99.90;;;;;;5040468;28;20181;-83
2022/06/11 02:15:27;;;;;;;6.20;1.58;;;18.10;99.90;;;;;;5033454;28;20277;-84
2022/06/11 02:17:59;;;;;;;4.53;1.40;;;18.10;99.90;;;;;;5035753;28;20182;-84
2022/06/11 02:20:36;;;;;;;7.22;1.60;;;18.10;99.90;;;;;;5043312;28;20205;-83
2022/06/11 02:23:07;;;;;;;6.15;1.75;;;18.10;99.90;;;;;;5028555;28;20185;-84
2022/06/11 02:25:39;;;;;;;3.28;1.70;;;18.10;99.90;;;;;;5048545;28;20183;-84
2022/06/11 02:28:09;;;;;;;5.53;1.75;;;18.00;99.90;;;;;;5043824;28;20198;-83
2022/06/11 02:30:36;;;;;;;2.97;1.20;;;18.00;99.90;;;;;;5033752;28;20202;-83
2022/06/11 02:33:02;;;;;;;5.10;1.60;;;18.00;99.90;;;;;;5035191;28;20182;-84
2022/06/11 02:35:54;;;;;;;2.35;1.40;;;18.00;99.90;;;;;;5033181;28;20234;-85
2022/06/11 02:38:23;;;;;;;4.18;1.80;;;18.00;99.90;;;;;;5033458;28;20233;-84
2022/06/11 02:40:59;;;;;;;4.22;1.50;;;18.00;99.90;;;;;;5032408;28;20271;-84
2022/06/11 02:43:26;;;;;;;4.97;1.58;;;18.00;99.90;;;;;;5049243;28;20196;-84
2022/06/11 02:45:51;;;;;;;8.70;1.67;;;18.00;99.90;;;;;;5033349;28;20186;-84
2022/06/11 02:48:18;;;;;;;3.10;1.38;;;18.00;99.90;;;;;;5033361;28;20185;-84
2022/06/11 02:50:46;;;;;;;3.33;1.38;;;18.00;99.90;;;;;;5033550;28;20651;-84
2022/06/11 02:53:13;;;;;;;4.03;1.60;;;18.00;99.90;;;;;;5033111;28;20197;-84
2022/06/11 02:55:41;;;;;;;4.07;1.58;;;18.00;99.90;;;;;;5033394;28;20187;-84
2022/06/11 02:58:08;;;;;;;4.30;1.73;;;18.00;99.90;;;;;;5034789;28;20179;-84
2022/06/11 03:00:42;;;;;;;4.63;1.60;;;18.00;99.90;;;;;;5033208;28;20214;-84
2022/06/11 03:03:08;;;;;;;3.28;1.48;;;18.00;99.90;;;;;;5036050;28;20170;-84
2022/06/11 03:05:36;;;;;;;3.17;1.58;;;18.00;99.90;;;;;;5039833;28;20201;-84
2022/06/11 03:08:03;;;;;;;3.72;1.35;;;18.00;99.90;;;;;;5033340;28;20265;-84
2022/06/11 03:10:30;;;;;;;4.90;1.60;;;18.00;99.90;;;;;;5033287;28;20321;-84
2022/06/11 03:12:56;;;;;;;3.75;1.40;;;18.00;99.90;;;;;;5033443;28;20178;-84
2022/06/11 03:15:24;;;;;;;5.30;1.33;;;17.90;99.90;;;;;;5032875;28;20193;-84
2022/06/11 03:17:51;;;;;;;3.50;1.58;;;17.90;99.90;;;;;;5049851;28;20523;-84
2022/06/11 03:20:19;;;;;;;4.22;1.60;;;17.90;99.90;;;;;;5046679;28;20251;-83
2022/06/11 03:22:45;;;;;;;4.35;1.60;;;17.90;99.90;;;;;;5037405;28;20190;-84
2022/06/11 03:25:11;;;;;;;3.53;1.60;;;17.90;99.90;;;;;;5032569;28;20175;-83
2022/06/11 03:27:38;;;;;;;4.80;1.58;;;17.90;99.90;;;;;;5033027;28;20186;-84
2022/06/11 03:30:07;;;;;;;4.07;1.50;;;17.90;99.90;;;;;;5033834;28;20174;-84
2022/06/11 03:32:33;;;;;;;3.92;1.52;;;17.90;99.90;;;;;;5039002;28;20182;-83
2022/06/11 03:34:59;;;;;;;5.22;1.60;;;17.90;99.90;;;;;;5051882;28;20668;-83
2022/06/11 03:37:25;;;;;;;7.18;1.60;;;17.80;99.90;;;;;;5053575;28;20227;-85
2022/06/11 03:39:51;;;;;;;5.28;1.42;;;17.90;99.90;;;;;;5053391;28;20218;-84
2022/06/11 03:42:17;;;;;;;3.75;1.48;;;17.90;99.90;;;;;;5052839;28;20580;-84
2022/06/11 03:44:43;;;;;;;5.45;1.63;;;17.90;99.90;;;;;;5040768;28;20175;-84
2022/06/11 03:47:09;;;;;;;4.50;1.75;;;17.90;99.90;;;;;;5047888;28;20280;-84
2022/06/11 03:49:35;;;;;;;5.45;1.85;;;17.80;99.90;;;;;;5051520;28;20186;-84
2022/06/11 03:52:01;;;;;;;3.58;1.55;;;17.90;99.90;;;;;;5046536;28;20178;-84
2022/06/11 03:54:26;;;;;;;4.22;1.42;;;17.90;99.90;;;;;;5033568;28;20224;-84
2022/06/11 03:56:52;;;;;;;4.30;1.52;;;17.80;99.90;;;;;;5032451;28;20191;-84
2022/06/11 03:59:20;;;;;;;2.40;1.30;;;17.80;99.90;;;;;;5050756;28;20197;-84
2022/06/11 04:01:47;;;;;;;3.50;1.58;;;17.80;99.90;;;;;;5051447;28;20303;-84
2022/06/11 04:04:14;;;;;;;2.85;1.50;;;17.80;99.90;;;;;;5051804;28;20624;-84
2022/06/11 04:07:01;;;;;;;6.85;1.75;;;17.90;99.90;;;;;;5041366;28;20182;-84
2022/06/11 04:09:36;;;;;;;3.42;1.40;;;17.80;99.90;;;;;;5033487;28;20516;-83
2022/06/11 04:12:03;;;;;;;2.35;1.20;;;17.90;99.90;;;;;;5040555;28;20617;-84
2022/06/11 04:14:29;;;;;;;3.90;1.40;;;17.90;99.90;;;;;;5037837;28;20225;-84
2022/06/11 04:17:01;;;;;;;5.80;1.42;;;17.90;99.90;;;;;;5032097;28;20217;-84
2022/06/11 04:19:33;;;;;;;5.00;1.70;;;17.90;99.90;;;;;;5032504;28;20182;-84
2022/06/11 04:22:00;;;;;;;5.18;1.38;;;18.00;99.90;;;;;;5035824;28;20293;-83
2022/06/11 04:24:28;;;;;;;6.07;1.40;;;18.00;99.90;;;;;;5046456;28;20183;-84
2022/06/11 04:26:55;;;;;;;4.03;1.50;;;18.00;99.90;;;;;;5033079;28;20183;-84
2022/06/11 04:29:25;;;;;;;4.00;1.42;;;18.00;99.90;;;;;;5031748;28;20189;-84
2022/06/11 04:31:53;;;;;;;4.20;1.48;;;18.10;99.90;;;;;;5046401;28;20204;-84
2022/06/11 04:34:20;;;;;;;4.93;1.63;;;18.10;99.90;;;;;;5030135;28;20228;-83
2022/06/11 04:36:48;;;;;;;3.53;1.33;;;18.10;99.90;;;;;;5031899;28;20303;-83
2022/06/11 04:39:16;;;;;;;5.95;1.73;;;18.10;99.90;;;;;;5025632;28;20196;-83
2022/06/11 04:41:43;;;;;;;2.97;1.48;;;18.10;99.90;;;;;;5031504;28;20233;-84
2022/06/11 04:44:09;;;;;;;7.63;1.52;;;18.10;99.90;;;;;;5032111;28;20191;-85
2022/06/11 04:46:36;;;;;;;4.50;1.40;;;18.10;99.90;;;;;;5033211;28;20217;-84
2022/06/11 04:49:03;;;;;;;4.03;1.63;;;18.20;99.90;;;;;;5044821;28;20205;-83
2022/06/11 04:51:29;;;;;;;4.13;1.63;;;18.20;99.90;;;;;;5037558;28;20266;-84
2022/06/11 04:53:55;;;;;;;5.88;1.30;;;18.20;99.90;;;;;;5031378;28;20720;-84
2022/06/11 04:56:24;;;;;;;4.80;1.70;;;18.20;99.90;;;;;;5033240;28;20178;-84
2022/06/11 04:58:52;;;;;;;3.17;1.40;;;18.30;99.90;;;;;;5041243;28;20561;-83
2022/06/11 05:01:18;;;;;;;5.53;1.52;;;18.30;99.90;;;;;;5050910;28;20248;-84
2022/06/11 05:03:44;;;;;;;1.80;1.45;;;18.30;99.90;;;;;;5050192;28;20178;-84
2022/06/11 05:06:14;;;;;;;3.42;1.50;;;18.30;99.90;;;;;;5050800;28;20573;-83
2022/06/11 05:08:39;;;;;;;4.35;1.77;;;18.40;99.90;;;;;;5043817;28;20678;-83
2022/06/11 05:11:05;;;;;;;4.90;1.40;;;18.40;99.90;;;;;;5032095;28;20194;-83
2022/06/11 05:13:31;;;;;;;4.68;1.40;;;18.40;99.90;;;;;;5031376;28;20193;-83
2022/06/11 05:15:58;;;;;;;4.20;1.60;;;18.50;99.90;;;;;;5032180;28;20178;-84
2022/06/11 05:18:25;;;;;;;4.47;1.60;;;18.50;99.90;;;;;;5035698;28;20581;-83
2022/06/11 05:20:51;;;;;;;7.40;1.77;;;18.50;99.90;;;;;;5055868;28;20663;-83
2022/06/11 05:23:17;;;;;;;5.88;1.30;;;18.60;99.90;;;;;;5037890;28;20525;-84
2022/06/11 05:25:43;;;;;;;5.13;1.25;;;18.60;99.90;;;;;;5034940;28;20627;-84
2022/06/11 05:28:17;;;;;;;3.97;1.58;;;18.70;99.90;;;;;;5035060;28;20637;-83
2022/06/11 05:30:44;;;;;;;6.00;1.50;;;18.70;99.90;;;;;;5034564;28;20683;-83
2022/06/11 05:33:10;;;;;;;5.22;1.45;;;18.80;99.90;;;;;;5034878;28;20532;-84
2022/06/11 05:35:36;;;;;;;12.32;2.20;;;18.80;99.90;;;;;;5034596;28;20237;-84
2022/06/11 05:38:06;;;;;;;6.50;1.75;;;18.90;99.90;;;;;;5036072;28;20174;-83
2022/06/11 05:40:35;;;;;;;3.10;1.30;;;19.00;99.90;;;;;;5034784;28;20226;-84
2022/06/11 05:43:01;;;;;;;4.90;1.55;;;19.00;99.90;;;;;;5031159;28;20179;-83
2022/06/11 05:45:35;;;;;;;4.72;1.70;;;19.10;99.90;;;;;;5035897;28;20175;-85
2022/06/11 05:48:04;;;;;;;5.75;1.75;;;19.10;99.90;;;;;;5054847;28;20239;-83
2022/06/11 05:50:33;;;;;;;3.75;1.40;;;19.20;99.90;;;;;;5053851;28;20551;-82
2022/06/11 05:53:01;;;;;;;4.28;1.60;;;19.30;99.90;;;;;;5053952;28;20240;-84
2022/06/11 05:55:29;;;;;;;3.00;1.50;;;19.40;99.90;;;;;;5053741;28;20177;-83
2022/06/11 05:57:59;;;;;;;4.05;1.30;;;19.50;99.90;;;;;;5055192;28;20178;-83
2022/06/11 06:00:28;;;;;;;4.60;1.63;;;19.60;99.90;;;;;;5053155;28;20206;-83
2022/06/11 06:02:54;;;;;;;3.72;1.65;;;19.60;99.90;;;;;;5053202;28;20186;-84
2022/06/11 06:05:26;;;;;;;4.10;1.50;;;19.80;99.90;;;;;;5053784;28;20635;-84
2022/06/11 06:07:52;;;;;;;4.45;1.30;;;19.80;99.90;;;;;;5053840;28;20512;-84
2022/06/11 06:10:18;;;;;;;5.63;1.73;;;19.90;99.90;;;;;;5055506;28;20307;-84
2022/06/11 06:12:44;;;;;;;4.35;1.38;;;20.00;99.90;;;;;;5054957;28;20231;-84
2022/06/11 06:15:13;;;;;;;4.05;1.50;;;20.10;99.90;;;;;;5036487;28;20698;-83
2022/06/11 06:17:39;;;;;;;6.40;1.60;;;20.20;99.90;;;;;;5028700;28;20178;-83
2022/06/11 06:20:07;;;;;;;5.05;1.50;;;20.20;99.90;;;;;;5034888;28;20489;-84
2022/06/11 06:22:33;;;;;;;3.72;1.20;;;20.30;99.90;;;;;;5041454;28;20182;-83
2022/06/11 06:25:00;;;;;;;4.18;1.73;;;20.30;99.90;;;;;;5033348;28;20179;-84
2022/06/11 06:27:25;;;;;;;4.78;1.23;;;20.30;99.90;;;;;;5033592;28;20304;-84
2022/06/11 06:29:51;;;;;;;5.50;1.35;;;20.30;99.90;;;;;;5034324;28;20613;-84
2022/06/11 06:32:17;;;;;;;7.88;1.40;;;20.30;99.90;;;;;;5035066;28;20171;-84
2022/06/11 06:34:43;;;;;;;7.03;1.55;;;20.50;99.90;;;;;;5034003;28;20498;-85
2022/06/11 06:37:09;;;;;;;3.45;1.33;;;20.60;99.90;;;;;;5054717;28;20243;-83
2022/06/11 06:39:34;;;;;;;5.75;1.45;;;20.70;99.90;;;;;;5046415;28;20644;-84
2022/06/11 06:42:00;;;;;;;3.33;1.40;;;20.70;99.90;;;;;;5041959;28;20213;-84
2022/06/11 06:44:27;;;;;;;4.10;1.85;;;20.80;99.90;;;;;;5043469;28;20185;-85
2022/06/11 06:46:54;;;;;;;6.30;1.50;;;20.90;99.90;;;;;;5034408;28;20205;-84
2022/06/11 06:49:20;;;;;;;6.65;1.88;;;20.90;99.90;;;;;;5034310;28;20183;-84
2022/06/11 06:51:45;;;;;;;4.00;1.55;;;20.90;99.90;;;;;;5050509;28;20204;-86
2022/06/11 06:54:11;;;;;;;3.45;1.30;;;21.00;99.90;;;;;;5045625;28;20626;-83
2022/06/11 06:56:37;;;;;;;5.22;1.80;;;21.00;99.90;;;;;;5053859;28;20182;-84
2022/06/11 06:59:04;;;;;;;5.13;1.55;;;21.10;99.90;;;;;;5040740;28;20178;-84
2022/06/11 07:01:31;;;;;;;2.47;1.30;;;21.20;99.90;;;;;;5032047;28;20209;-85
2022/06/11 07:03:57;;;;;;;5.13;1.50;;;21.20;99.90;;;;;;5054296;28;20245;-84
2022/06/11 07:06:24;;;;;;;3.55;1.65;;;21.20;99.90;;;;;;5047227;28;20576;-85
2022/06/11 07:08:54;;;;;;;3.83;1.65;;;21.40;99.90;;;;;;5042381;28;20178;-84
2022/06/11 07:11:20;;;;;;;7.78;1.58;;;21.40;99.90;;;;;;5034155;28;20183;-84
2022/06/11 07:13:46;;;;;;;5.18;1.33;;;21.50;99.90;;;;;;5039657;28;20174;-84
2022/06/11 07:16:16;;;;;;;5.47;1.60;;;21.60;99.90;;;;;;5053307;28;20190;-83
2022/06/11 07:18:49;;;;;;;3.67;1.25;;;21.80;99.90;;;;;;5053770;28;20616;-84
2022/06/11 07:21:25;;;;;;;5.10;1.58;;;21.90;99.90;;;;;;5054643;28;20549;-85
2022/06/11 07:23:56;;;;;;;3.38;1.50;;;22.20;99.90;;;;;;5044900;28;20184;-84
2022/06/11 07:26:51;;;;;;;3.47;1.55;;;22.30;99.90;;;;;;5053429;28;20620;-86
2022/06/11 07:29:22;;;;;;;9.20;2.10;;;22.50;99.90;;;;;;5039247;28;20235;-85
2022/06/11 07:31:50;;;;;;;7.82;2.40;;;22.60;99.90;;;;;;5033492;28;20174;-86
2022/06/11 07:34:16;;;;;;;5.45;1.35;;;22.60;99.90;;;;;;5049459;28;20174;-84
2022/06/11 07:36:42;;;;;;;7.80;1.85;;;22.80;99.90;;;;;;5051638;28;20246;-86
2022/06/11 07:39:08;;;;;;;8.20;1.90;;;22.80;99.90;;;;;;5034733;28;20174;-83
2022/06/11 07:41:34;;;;;;;5.03;1.77;;;22.80;99.90;;;;;;5053101;28;20209;-83
2022/06/11 07:43:59;;;;;;;5.45;2.13;;;22.80;99.90;;;;;;5045932;28;20519;-84
2022/06/11 07:46:25;;;;;;;6.63;2.20;;;23.00;99.90;;;;;;5034151;28;20229;-84
2022/06/11 07:48:51;;;;;;;4.30;1.83;;;23.20;99.90;;;;;;5034861;28;20182;-84
2022/06/11 07:51:19;;;;;;;6.50;2.10;;;23.50;99.90;;;;;;5040481;28;20186;-85
2022/06/11 07:53:47;;;;;;;5.10;1.95;;;23.40;99.90;;;;;;5052336;28;20510;-85
2022/06/11 07:56:13;;;;;;;6.57;2.35;;;23.50;99.90;;;;;;5047975;28;20189;-85
2022/06/11 07:58:39;;;;;;;6.63;2.88;;;23.50;99.90;;;;;;5033433;28;20185;-83
2022/06/11 08:01:07;;;;;;;9.50;3.22;;;23.20;99.90;;;;;;5033118;28;20198;-84
2022/06/11 08:03:37;;;;;;;7.97;3.15;;;23.20;99.90;;;;;;5043731;28;20193;-84
2022/06/11 08:06:04;;;;;;;9.68;2.95;;;23.10;99.90;;;;;;5053654;28;20177;-85
2022/06/11 08:08:31;;;;;;;5.85;2.80;;;23.20;99.90;;;;;;5033014;28;20644;-84
2022/06/11 08:10:58;;;;;;;6.72;3.17;;;23.30;99.90;;;;;;5033170;28;20189;-85
2022/06/11 08:13:23;;;;;;;7.63;3.00;;;23.50;99.90;;;;;;5036280;28;20277;-84
2022/06/11 08:15:51;;;;;;;12.88;3.13;;;23.30;99.90;;;;;;5032864;28;20269;-85
2022/06/11 08:18:17;;;;;;;9.05;2.85;;;23.40;99.90;;;;;;5033027;28;20696;-84
2022/06/11 08:20:44;;;;;;;6.07;2.30;;;23.60;99.90;;;;;;5033183;28;20206;-83
2022/06/11 08:23:10;;;;;;;7.53;2.50;;;23.70;99.90;;;;;;5042446;28;20185;-83
2022/06/11 08:25:36;;;;;;;5.80;2.20;;;23.80;99.90;;;;;;5032799;28;20178;-82
2022/06/11 08:28:02;;;;;;;6.97;2.17;;;23.80;99.90;;;;;;5032802;28;20232;-84
2022/06/11 08:30:30;;;;;;;6.43;2.25;;;23.70;99.90;;;;;;5029541;28;20186;-84
2022/06/11 08:32:56;;;;;;;7.70;2.05;;;23.30;99.90;;;;;;5028885;28;20554;-83
2022/06/11 08:35:27;;;;;;;5.05;2.17;;;23.00;99.90;;;;;;5032514;28;20232;-84
2022/06/11 08:37:52;;;;;;;5.38;2.10;;;22.80;99.90;;;;;;5030498;28;20236;-83
2022/06/11 08:40:41;;;;;;;5.88;2.40;;;22.70;99.90;;;;;;5023712;28;20616;-84
2022/06/11 08:43:13;;;;;;;6.85;2.47;;;22.80;99.90;;;;;;5024581;28;20633;-83
2022/06/11 08:45:48;;;;;;;5.13;2.20;;;22.70;99.90;;;;;;5021041;28;20178;-83
2022/06/11 08:48:33;;;;;;;8.15;2.47;;;22.70;99.90;;;;;;5032854;28;20543;-86
2022/06/11 08:51:16;;;;;;;4.55;2.15;;;22.90;99.90;;;;;;5028349;28;20171;-83
2022/06/11 08:53:42;;;;;;;4.55;2.10;;;23.20;99.90;;;;;;5030383;28;20189;-83
2022/06/11 08:56:29;;;;;;;7.63;2.35;;;23.70;99.90;;;;;;5036113;28;20188;-85
2022/06/11 08:59:07;;;;;;;2.47;1.50;;;24.00;99.90;;;;;;5038115;28;20182;-83
2022/06/11 09:01:51;;;;;;;18.75;2.63;;;24.20;99.40;;;;;;5037124;28;20209;-85
2022/06/11 09:04:43;;;;;;;4.97;1.95;;;24.10;99.30;;;;;;5035548;28;20182;-81
2022/06/11 09:07:42;;;;;;;7.10;1.88;;;24.10;98.90;;;;;;5036311;28;20178;-84
2022/06/11 09:10:19;;;;;;;6.95;2.30;;;24.20;98.90;;;;;;5036337;28;20264;-85
2022/06/11 09:13:07;;;;;;;42.42;4.15;;;24.00;98.80;;;;;;5033220;28;20266;-84
2022/06/11 09:15:36;;;;;;;5.68;2.00;;;24.10;98.60;;;;;;5036702;28;21021;-87
2022/06/11 09:18:02;;;;;;;4.93;1.60;;;24.00;98.00;;;;;;5036910;28;20265;-83
2022/06/11 09:20:45;;;;;;;8.68;1.88;;;24.00;98.50;;;;;;5035647;28;20344;-84
2022/06/11 09:23:38;;;;;;;13.02;2.03;;;24.20;99.80;;;;;;5051017;28;20181;-82
2022/06/11 09:26:30;;;;;;;5.30;1.48;;;24.50;99.70;;;;;;5034134;28;20171;-82
2022/06/11 09:29:20;;;;;;;3.83;1.70;;;24.90;99.20;;;;;;5035801;28;20190;-83
2022/06/11 09:32:01;;;;;;;4.57;2.03;;;25.20;98.50;;;;;;5047318;28;20186;-87
2022/06/11 09:34:51;;;;;;;7.82;1.92;;;25.10;97.00;;;;;;5054985;28;20186;-81
2022/06/11 09:37:28;;;;;;;6.18;1.65;;;25.00;97.40;;;;;;5036968;28;20191;-84
2022/06/11 09:40:13;;;;;;;18.58;3.97;;;24.80;97.70;;;;;;5043177;28;20182;-83
2022/06/11 09:42:57;;;;;;;5.63;1.65;;;24.80;98.40;;;;;;5038461;28;20205;-85
2022/06/11 09:46:04;;;;;;;3.25;1.58;;;24.90;98.50;;;;;;5044854;28;20181;-85
2022/06/11 09:48:56;;;;;;;4.25;1.65;;;25.00;97.70;;;;;;5008766;28;20282;-84
2022/06/11 09:52:05;;;;;;;2.42;1.30;;;25.00;96.60;;;;;;5031916;28;20206;-84
2022/06/11 09:54:41;;;;;;;4.43;1.40;;;25.20;97.70;;;;;;5035859;28;20196;-84
2022/06/11 09:57:42;;;;;;;5.75;1.52;;;25.30;97.60;;;;;;5037097;28;20186;-85
2022/06/11 10:00:20;;;;;;;2.60;0.90;;;25.50;97.60;;;;;;5036185;28;20605;-86
2022/06/11 10:03:29;;;;;;;2.45;0.80;;;25.70;95.20;;;;;;5053006;28;20189;-85
2022/06/11 10:06:16;;;;;;;2.38;0.90;;;25.80;95.00;;;;;;5052734;28;20209;-86
2022/06/11 10:08:56;;;;;;;1.13;0.80;;;25.80;94.90;;;;;;5042386;28;20181;-85
2022/06/11 10:11:36;;;;;;;2.97;0.98;;;25.80;95.00;;;;;;5028373;28;20205;-85
2022/06/11 10:17:01;;;;;;;2.47;0.85;;;25.80;94.40;;;;;;5033724;28;20229;-85
2022/06/11 10:19:40;;;;;;;2.45;0.90;;;25.70;92.80;;;;;;5032023;28;20236;-84
2022/06/11 10:22:18;;;;;;;2.20;0.60;;;25.70;93.90;;;;;;5028269;28;20252;-84
2022/06/11 10:25:11;;;;;;;5.85;1.00;;;25.90;94.80;;;;;;5035115;28;20182;-86
2022/06/11 10:27:49;;;;;;;2.63;0.88;;;26.00;94.10;;;;;;5036312;28;20565;-87
2022/06/11 10:30:53;;;;;;;2.15;0.73;;;26.00;93.90;;;;;;5031308;28;20195;-86
2022/06/11 10:33:30;;;;;;;1.92;0.80;;;26.10;94.40;;;;;;5021149;28;20194;-87
2022/06/11 10:36:08;;;;;;;4.35;0.93;;;26.20;94.50;;;;;;5040455;28;20241;-87
2022/06/11 10:38:42;;;;;;;3.03;0.70;;;26.30;93.40;;;;;;5029978;28;20505;-85
2022/06/11 10:41:16;;;;;;;3.45;0.65;;;26.50;94.50;;;;;;5033007;28;20284;-83
2022/06/11 10:44:08;;;;;;;1.42;1.13;;;26.80;94.30;;;;;;5035070;28;20185;-87
2022/06/11 10:46:36;;;;;;;1.35;0.70;;;27.20;92.30;;;;;;5035567;28;20308;-84
2022/06/11 10:49:02;;;;;;;1.67;0.52;;;27.20;92.50;;;;;;5035023;28;20301;-85
2022/06/11 10:51:32;;;;;;;0.90;0.60;;;27.10;91.70;;;;;;5029217;28;20174;-84
2022/06/11 10:54:13;;;;;;;1.17;0.60;;;26.70;91.30;;;;;;5037644;28;20178;-85
2022/06/11 10:57:19;;;;;;;2.75;0.50;;;26.20;91.30;;;;;;5053737;28;20521;-83
2022/06/11 11:00:03;;;;;;;2.20;0.77;;;25.70;91.80;;;;;;5040420;28;20637;-85
2022/06/11 11:02:38;;;;;;;2.90;0.60;;;25.50;92.30;;;;;;5031512;28;20654;-84
2022/06/11 11:05:09;;;;;;;1.33;0.63;;;25.70;93.40;;;;;;5033711;28;20201;-85
2022/06/11 11:07:58;;;;;;;3.95;0.50;;;25.70;93.00;;;;;;5033501;28;20183;-84
2022/06/11 11:10:42;;;;;;;0.80;0.40;;;25.50;90.60;;;;;;5038323;28;20564;-83
2022/06/11 11:13:28;;;;;;;2.70;0.70;;;25.40;92.40;;;;;;5036282;28;20181;-83
2022/06/11 11:16:01;;;;;;;2.33;0.70;;;25.20;92.20;;;;;;5032290;28;20272;-85
2022/06/11 11:18:45;;;;;;;7.55;0.70;;;24.90;92.20;;;;;;5033518;28;20614;-83
2022/06/11 11:21:59;;;;;;;1.98;0.60;;;24.70;91.90;;;;;;5024344;28;20214;-84
2022/06/11 11:24:35;;;;;;;1.63;0.60;;;24.60;93.10;;;;;;5010731;28;20519;-86
2022/06/11 11:27:04;;;;;;;1.70;0.60;;;24.80;93.00;;;;;;5034051;28;20183;-83
2022/06/11 11:29:36;;;;;;;3.50;0.75;;;25.10;92.00;;;;;;5027746;28;20567;-84
2022/06/11 11:32:06;;;;;;;1.33;0.50;;;25.20;92.70;;;;;;5048850;28;20244;-83
2022/06/11 11:34:44;;;;;;;1.45;0.70;;;25.10;92.40;;;;;;5029231;28;20182;-84
2022/06/11 11:37:12;;;;;;;1.10;0.65;;;25.00;93.10;;;;;;5028078;28;20258;-84
2022/06/11 11:39:38;;;;;;;1.25;0.70;;;25.10;93.40;;;;;;5027914;28;20230;-84
2022/06/11 11:42:07;;;;;;;1.33;0.60;;;25.20;94.10;;;;;;5046284;28;20220;-85
2022/06/11 11:44:35;;;;;;;0.65;0.50;;;25.70;92.50;;;;;;5042251;28;20221;-85
2022/06/11 11:47:08;;;;;;;1.25;0.55;;;26.00;91.80;;;;;;5032759;28;20182;-83
2022/06/11 11:49:35;;;;;;;2.08;0.60;;;25.90;91.20;;;;;;5022750;28;20176;-83
2022/06/11 11:52:15;;;;;;;1.30;0.60;;;25.60;91.60;;;;;;5033115;28;20257;-84
2022/06/11 11:55:00;;;;;;;0.70;0.50;;;25.40;91.50;;;;;;5025893;28;20373;-85
2022/06/11 11:57:31;;;;;;;1.15;0.63;;;25.10;91.30;;;;;;5028687;28;20613;-84
2022/06/11 12:00:07;;;;;;;2.15;0.57;;;25.00;93.10;;;;;;5022284;28;20178;-84
2022/06/11 12:02:45;;;;;;;0.70;0.50;;;24.90;93.40;;;;;;5032190;28;20289;-84
2022/06/11 12:05:23;;;;;;;1.50;0.60;;;25.00;93.20;;;;;;5032615;28;20265;-84
2022/06/11 12:07:50;;;;;;;4.53;0.70;;;25.20;94.50;;;;;;5031343;28;20174;-84
2022/06/11 12:10:44;;;;;;;1.30;0.68;;;25.50;92.80;;;;;;5033977;28;20171;-86
2022/06/11 12:13:39;;;;;;;3.53;0.63;;;25.60;92.80;;;;;;5030319;28;20255;-85
2022/06/11 12:16:06;;;;;;;1.35;0.63;;;25.80;92.50;;;;;;5051350;28;20174;-85
2022/06/11 12:18:48;;;;;;;1.30;0.60;;;26.20;92.90;;;;;;5051108;28;20193;-84
2022/06/11 12:21:19;;;;;;;1.50;0.50;;;26.40;91.10;;;;;;5041348;28;20217;-85
2022/06/11 12:24:36;;;;;;;1.27;0.70;;;26.30;91.50;;;;;;5035763;28;20601;-84
2022/06/11 12:27:13;;;;;;;3.05;0.50;;;26.10;91.50;;;;;;4972331;28;20192;-83
2022/06/11 12:29:45;;;;;;;1.60;0.68;;;25.80;90.80;;;;;;4964171;28;20181;-84
2022/06/11 12:32:19;;;;;;;1.33;0.60;;;25.50;91.50;;;;;;4989529;28;20193;-85
2022/06/11 12:34:44;;;;;;;1.10;0.50;;;25.30;92.00;;;;;;5037747;28;20695;-84
2022/06/11 12:37:17;;;;;;;1.73;0.60;;;25.50;92.20;;;;;;5048670;28;20193;-84
2022/06/11 12:40:03;;;;;;;2.38;0.60;;;26.00;92.80;;;;;;5033424;28;20171;-84
2022/06/11 12:42:39;;;;;;;3.53;0.82;;;26.20;91.90;;;;;;5029990;28;20293;-83
2022/06/11 12:45:17;;;;;;;1.25;0.60;;;26.20;91.30;;;;;;5032585;28;20189;-84
2022/06/11 12:48:00;;;;;;;3.40;0.47;;;25.90;91.60;;;;;;5032215;28;20209;-86
2022/06/11 12:50:35;;;;;;;1.20;0.65;;;25.80;91.10;;;;;;5037538;28;20629;-85
2022/06/11 12:53:11;;;;;;;4.97;0.57;;;26.00;92.80;;;;;;5047527;28;20185;-85
2022/06/11 12:55:38;;;;;;;1.38;0.55;;;26.40;91.80;;;;;;5032432;28;20265;-84
2022/06/11 12:58:31;;;;;;;1.17;0.50;;;26.40;90.70;;;;;;5032887;28;20190;-83
2022/06/11 13:01:13;;;;;;;1.20;0.73;;;26.20;91.20;;;;;;5014650;28;20637;-82
2022/06/11 13:04:10;;;;;;;0.90;0.60;;;26.00;90.90;;;;;;5026969;28;20622;-83
2022/06/11 13:07:01;;;;;;;2.80;0.77;;;25.70;90.60;;;;;;5011513;28;20238;-84
2022/06/11 13:09:53;;;;;;;1.58;0.70;;;25.60;91.70;;;;;;5029111;28;20183;-85
2022/06/11 13:12:24;;;;;;;2.72;0.50;;;25.50;91.80;;;;;;5030565;28;20272;-84
2022/06/11 13:15:25;;;;;;;1.23;0.60;;;25.50;91.70;;;;;;5029218;28;20194;-84
2022/06/11 13:18:36;;;;;;;1.27;0.60;;;25.40;92.30;;;;;;5012360;28;20262;-82
2022/06/11 13:21:20;;;;;;;0.88;0.60;;;25.30;91.90;;;;;;5028528;28;20222;-84
2022/06/11 13:23:58;;;;;;;0.68;0.60;;;25.40;92.60;;;;;;5026327;28;20188;-83
2022/06/11 13:27:06;;;;;;;2.22;0.82;;;25.70;93.60;;;;;;5023468;28;20234;-85